Aérodrome :
LOGIN :

S'inscrire | Disclaimer

   EN    FR    IT 

 










Légende :    VFR   VFR Marginal   IFR   IFR Intensif   IFR Très Intensif
Visi : 
Plafond : 
>= 8 km
>= 3000ft
5 à 8 km
1000 à 3000 ft
1500m à 5 km
500 à 1000 ft
800 à 1500m
200 à 500 ft
< 800m
< 200 ft
Symboles :   Orages  Brouillard  Fortes neiges  Fortes précipitations  Vent > 20 kt
SIGMETs :   Divers  Orages  Givrage  Turbulence  Onde Orograph.  Cendres Volcan.






- Altitude de l'aérodrome : 274 ft
- Code IATA : PUY


LDPL - Pula

DERNIER METAR :
  • 202230Z 07004KT CAVOK 15/13 Q1021

METARs EXPIRÉS :
  • 202200Z 08004KT CAVOK 15/13 Q1022
  • 202130Z 07004KT CAVOK 15/13 Q1022
  • 202100Z 08005KT CAVOK 15/13 Q1022 NOSIG
  • 202030Z 08004KT CAVOK 16/13 Q1022 NOSIG
  • 202000Z 07003KT CAVOK 16/13 Q1022 NOSIG

TAF TAF LDPL
Valide du 20 à 18h jusqu'au 21 à 18h UTC


201725Z 2018/2118 VRB02KT CAVOK TX26/2113Z TN12/2103Z
BECMG 2110/2112 27008KT
BECMG 2116/2118 30005KT



MET'MAP, la Météo Aéronautique d'un coup d'oeil ! - Copyright ORBIFLY Décembre 2007 - Disclaimer

ORBIFLY MET'MAP TEAM :

Programmation & Développement : Alexandra Zaïnal
Sur une idée originale de : Baudouin d'Aumeries
Soutien technique & logistique : Manuel Goepfert
Assistance : Marc-Olivier Méhu

Contact : metmap@orbifly.com




SOURCES & CREDITS :

   NOAA